6WI1 weather

Winch Airfield
Wisconsin Rapids, Wisconsin, United States

Public forecast

Using degrees Fahrenheit for public forecast. Weather courtesy of forecast.io.

Closest aviation weather report (METAR) to Winch Airfield

Closest report is Alexander Field South Wood County Airport, 8.7 nm (16.1 km) SSE. Retrieved 2020/02/23 13:54 UTC (53 minutes ago):

KISW 231354Z AUTO 22008KT 8SM CLR M02/M03 A2984 RMK AO2 SLP116 T10171033

Closest aviation forecast (TAF) to Winch Airfield

Closest forecast is Central Wisconsin Airport, 19.9 nm (36.9 km) NNE. Retrieved 2020/02/23 12:33 UTC (2 hours ago):

TAF KCWA 231130Z 2312/2412 22006KT P6SM SKC TEMPO 2312/2314 4SM BR FM231500 25008KT P6SM SCT250 FM231700 27011G18KT P6SM SCT250 WS016/29035KT FM240000 29009G15KT P6SM SCT250 FM240200 29006KT P6SM BKN250 FM241000 33005KT P6SM SCT012